Bellmunt





Hora UTC 07:55
Temperatura 4.8 ºC
Humedad 75.0 %
Presión 1024.7 hPa
Pluja 0.0 mm
Velocidad viento 0.0 km/h
Dirección viento SW

Datos diarios 2020-02-20



Hora UTC (invierno +1h; verano +2h)
Temperatura (ºC) Humedad (%) Presión (hPa) Velocidad viento (km/h) Precipitación (mm)
Hora UTC Aire Humedad Presión Vel. Dir. Vel. Max Dir. Intent. máx 5 min.
00:05 2.9 92.0 1027.1 3.2 S 3.2 0.0
00:10 2.8 92.0 1027.0 3.2 SSE 4.8 0.0
00:15 2.8 93.0 1027.0 8.0 SSE 8.0 0.0
00:20 2.8 93.0 1027.0 3.2 SE 8.0 0.0
00:25 2.7 93.0 1026.9 1.6 ESE 8.0 0.0
00:30 2.7 93.0 1027.1 0.0 SE 3.2 0.0
00:35 2.7 93.0 1027.0 0.0 S 4.8 0.0
00:40 2.6 93.0 1027.0 0.0 SSW 3.2 0.0
00:40 2.6 93.0 1027.0 0.0 WSW 3.2 0.0
00:50 2.7 93.0 1026.9 0.0 WNW 0.0 0.0
00:55 2.6 93.0 1026.7 0.0 WNW 0.0 0.0
01:00 2.6 93.0 1026.6 0.0 WNW 0.0 0.0
01:05 2.6 93.0 1026.5 0.0 WNW 0.0 0.0
01:10 2.6 93.0 1026.4 0.0 WNW 0.0 0.0
01:15 2.5 93.0 1026.4 0.0 WNW 0.0 0.0
01:20 2.5 93.0 1026.2 0.0 WNW 0.0 0.0
01:25 2.5 93.0 1026.2 0.0 SSW 1.6 0.0
01:30 2.4 93.0 1026.2 0.0 SSW 1.6 0.0
01:35 2.4 93.0 1026.2 0.0 SSW 0.0 0.0
01:40 2.3 93.0 1026.1 0.0 SSW 0.0 0.0
01:40 2.3 93.0 1026.1 0.0 SSW 0.0 0.0
01:50 2.2 93.0 1026.1 0.0 SSW 0.0 0.0
01:55 2.2 93.0 1026.0 0.0 SSW 0.0 0.0
02:00 2.2 93.0 1025.9 0.0 SSW 0.0 0.0
02:05 2.3 94.0 1025.9 0.0 SW 0.0 0.0
02:10 2.5 94.0 1025.8 0.0 SW 0.0 0.0
02:15 2.7 94.0 1025.8 0.0 SW 0.0 0.0
02:20 2.6 94.0 1025.7 0.0 SW 0.0 0.0
02:25 2.7 93.0 1025.7 0.0 WSW 0.0 0.0
02:30 2.8 93.0 1025.7 0.0 WSW 0.0 0.0
02:35 2.6 91.0 1025.5 4.8 W 4.8 0.0
02:40 2.7 91.0 1025.5 3.2 W 4.8 0.0
02:40 2.7 91.0 1025.5 1.6 W 4.8 0.0
02:50 2.5 89.0 1025.4 3.2 W 4.8 0.0
02:55 2.6 85.0 1025.3 0.0 W 4.8 0.0
03:00 2.7 84.0 1025.3 0.0 W 0.0 0.0
03:05 2.7 83.0 1025.3 0.0 W 0.0 0.0
03:10 2.7 84.0 1025.2 4.8 W 6.4 0.0
03:15 2.7 83.0 1025.1 3.2 W 6.4 0.0
03:20 2.6 83.0 1025.0 6.4 W 9.7 0.0
03:25 2.7 82.0 1025.0 6.4 W 9.7 0.0
03:30 2.7 82.0 1024.9 3.2 W 6.4 0.0
03:35 2.6 82.0 1024.9 4.8 W 4.8 0.0
03:40 2.6 82.0 1024.9 3.2 W 6.4 0.0
03:40 2.6 82.0 1024.9 3.2 W 6.4 0.0
03:50 2.6 80.0 1024.9 4.8 W 6.4 0.0
03:55 2.8 78.0 1024.9 6.4 W 9.7 0.0
04:00 3.3 75.0 1024.9 6.4 W 9.7 0.0
04:05 3.5 76.0 1024.9 1.6 W 9.7 0.0
04:10 3.5 77.0 1025.1 1.6 W 4.8 0.0
04:15 3.4 78.0 1025.0 1.6 W 4.8 0.0
04:20 3.2 77.0 1025.0 0.0 W 3.2 0.0
04:25 3.1 78.0 1025.0 1.6 W 4.8 0.0
04:30 3.0 78.0 1024.9 3.2 W 6.4 0.0
04:35 2.9 78.0 1025.0 3.2 WNW 11.3 0.0
04:40 2.9 79.0 1024.9 9.7 W 11.3 0.0
04:40 2.9 75.0 1024.9 4.8 W 9.7 0.0
04:50 3.1 72.0 1024.8 9.7 W 11.3 0.0
04:55 3.1 70.0 1024.9 11.3 WSW 12.9 0.0
05:00 3.1 68.0 1024.9 6.4 W 12.9 0.0
05:05 3.2 68.0 1024.9 9.7 W 12.9 0.0
05:10 3.3 70.0 1025.0 4.8 W 11.3 0.0
05:15 3.2 70.0 1024.9 6.4 W 9.7 0.0
05:20 3.2 70.0 1024.9 9.7 W 9.7 0.0
05:25 3.2 72.0 1024.8 6.4 WNW 8.0 0.0
05:30 3.2 74.0 1024.7 6.4 WNW 8.0 0.0
05:35 3.1 74.0 1024.7 4.8 WNW 8.0 0.0
05:40 3.1 77.0 1024.7 6.4 WNW 6.4 0.0
05:40 3.1 77.0 1024.7 4.8 WNW 6.4 0.0
05:50 3.1 72.0 1024.6 8.0 WNW 8.0 0.0
05:55 3.1 72.0 1024.6 8.0 WNW 11.3 0.0
06:00 3.1 76.0 1024.6 8.0 WNW 11.3 0.0
06:05 3.1 80.0 1024.7 6.4 WNW 11.3 0.0
06:10 2.9 76.0 1024.7 3.2 WNW 8.0 0.0
06:15 3.0 74.0 1024.7 0.0 WNW 4.8 0.0
06:20 3.1 75.0 1024.6 0.0 WNW 0.0 0.0
06:25 3.2 72.0 1024.5 8.0 NW 8.0 0.0
06:30 3.3 72.0 1024.5 6.4 NW 8.0 0.0
06:35 3.4 76.0 1024.5 4.8 WNW 8.0 0.0
06:40 3.6 75.0 1024.5 0.0 WNW 6.4 0.0
06:40 3.6 75.0 1024.5 0.0 WNW 6.4 0.0
06:50 3.8 76.0 1024.4 0.0 WNW 0.0 0.0
06:55 4.0 75.0 1024.3 0.0 WNW 0.0 0.0
07:00 4.0 75.0 1024.3 0.0 WNW 0.0 0.0
07:05 4.1 76.0 1024.4 0.0 WNW 0.0 0.0
07:10 4.3 76.0 1024.3 0.0 WNW 0.0 0.0
07:15 4.6 75.0 1024.5 0.0 WNW 1.6 0.0
07:20 4.9 75.0 1024.4 0.0 N 1.6 0.0
07:25 4.9 72.0 1024.5 0.0 N 0.0 0.0
07:30 4.8 74.0 1024.6 0.0 N 0.0 0.0
07:35 4.9 74.0 1024.4 0.0 N 0.0 0.0
07:40 5.2 73.0 1024.6 0.0 NNE 0.0 0.0
07:40 5.2 73.0 1024.6 0.0 NNE 0.0 0.0
07:50 4.8 76.0 1024.8 0.0 SW 3.2 0.0
07:55 4.8 75.0 1024.7 0.0 SW 1.6 0.0
Máxima 7.5 94.0 1027.1 11.3 WSW 12.9 0.0
Mínima 2.2 68.0 1024.3
Total 0.0